Time;durP1;ratioP1;P1;durP2;ratioP2;P2;SDS_P1;SDS_P2;PMS_P1;PMS_P2;Temp;Humidity;BMP_temperature;BMP_pressure;BME280_temperature;BME280_humidity;BME280_pressure;Samples;Min_cycle;Max_cycle;Signal;HPM_P1;HPM_P2
2022/02/13 00:00:15;;;;;;;4.58;3.30;;;;;;;11.27;71.21;101540.95;1836046;77;21010;-68
2022/02/13 00:02:43;;;;;;;4.25;3.10;;;;;;;11.25;71.20;101537.57;1829362;77;21029;-67
2022/02/13 00:05:10;;;;;;;4.10;3.22;;;;;;;11.22;71.18;101534.66;1818243;77;21032;-66
2022/02/13 00:07:36;;;;;;;3.37;2.95;;;;;;;11.19;71.29;101531.78;1822361;77;20982;-67
2022/02/13 00:10:06;;;;;;;4.15;3.12;;;;;;;11.17;71.30;101535.06;1830861;77;21213;-67
2022/02/13 00:12:34;;;;;;;3.45;2.98;;;;;;;11.15;71.25;101538.33;1811475;77;21011;-68
2022/02/13 00:15:00;;;;;;;3.58;3.22;;;;;;;11.13;71.30;101539.45;1829677;77;21017;-67
2022/02/13 00:17:28;;;;;;;3.50;2.98;;;;;;;11.11;71.23;101550.20;1816833;77;20975;-68
2022/02/13 00:19:54;;;;;;;3.30;3.00;;;;;;;11.08;71.21;101549.12;1831328;77;20990;-68
2022/02/13 00:22:21;;;;;;;3.65;3.00;;;;;;;11.06;71.20;101557.71;1829758;77;21123;-68
2022/02/13 00:24:47;;;;;;;4.10;3.05;;;;;;;11.04;71.22;101550.34;1826191;77;21010;-67
2022/02/13 00:27:13;;;;;;;3.33;2.58;;;;;;;11.01;71.34;101552.78;1850103;77;21006;-67
2022/02/13 00:29:42;;;;;;;3.85;3.40;;;;;;;11.00;71.37;101551.58;1835513;77;21009;-67
2022/02/13 00:32:09;;;;;;;4.08;2.85;;;;;;;10.97;71.33;101545.17;1812736;77;21037;-66
2022/02/13 00:34:36;;;;;;;3.62;3.02;;;;;;;10.92;71.38;101536.75;1826757;77;21145;-67
2022/02/13 00:37:04;;;;;;;3.52;2.77;;;;;;;10.94;71.34;101541.45;1833441;77;21049;-67
2022/02/13 00:39:30;;;;;;;3.55;3.02;;;;;;;11.05;71.17;101536.09;1808217;77;21049;-67
2022/02/13 00:41:56;;;;;;;3.37;2.83;;;;;;;11.07;71.04;101527.96;1819653;77;21009;-67
2022/02/13 00:44:23;;;;;;;3.55;2.90;;;;;;;10.98;71.09;101515.80;1826476;77;21055;-66
2022/02/13 00:46:50;;;;;;;3.17;2.87;;;;;;;11.01;71.17;101530.18;1827706;77;21139;-67
2022/02/13 00:49:17;;;;;;;3.40;2.62;;;;;;;10.98;71.07;101533.08;1828621;76;21073;-67
2022/02/13 00:51:43;;;;;;;3.37;2.85;;;;;;;10.96;71.06;101543.00;1823866;77;21080;-67
2022/02/13 00:54:10;;;;;;;3.60;3.00;;;;;;;10.93;71.00;101547.26;1821160;77;21005;-67
2022/02/13 00:56:36;;;;;;;3.47;3.00;;;;;;;10.93;70.98;101552.58;1824804;77;21500;-66
2022/02/13 00:59:03;;;;;;;3.22;2.55;;;;;;;10.91;71.04;101557.64;1809105;77;21113;-68
2022/02/13 01:01:29;;;;;;;3.08;2.77;;;;;;;10.89;71.01;101548.45;1764599;81;21038;-68
2022/02/13 01:03:55;;;;;;;3.47;2.85;;;;;;;10.86;71.00;101546.06;1814511;77;21021;-67
2022/02/13 01:06:24;;;;;;;3.47;3.10;;;;;;;10.84;71.03;101539.20;1834977;77;20987;-67
2022/02/13 01:08:51;;;;;;;3.05;2.72;;;;;;;10.72;71.04;101523.73;1821356;77;21025;-66
2022/02/13 01:11:17;;;;;;;3.65;2.95;;;;;;;10.80;71.04;101546.08;1836715;77;21130;-67
2022/02/13 01:13:48;;;;;;;3.90;2.87;;;;;;;10.77;71.09;101538.34;1831524;77;21049;-68
2022/02/13 01:16:14;;;;;;;3.87;3.08;;;;;;;10.76;71.15;101536.67;1834529;77;21493;-66
2022/02/13 01:18:41;;;;;;;3.17;2.58;;;;;;;10.74;71.19;101533.76;1811846;78;21529;-68
2022/02/13 01:21:08;;;;;;;2.95;2.55;;;;;;;10.72;71.13;101535.23;1835796;78;21088;-67
2022/02/13 01:23:36;;;;;;;3.35;2.83;;;;;;;10.70;71.09;101529.66;1825413;78;21049;-67
2022/02/13 01:26:02;;;;;;;3.25;2.72;;;;;;;10.69;71.11;101522.19;1819613;78;21038;-67
2022/02/13 01:30:09;;;;;;;3.40;2.83;;;;;;;10.70;71.21;101526.55;1878095;76;28908;-69
2022/02/13 01:32:36;;;;;;;4.35;3.10;;;;;;;10.69;71.14;101533.31;1827899;77;20946;-67
2022/02/13 01:35:02;;;;;;;3.00;2.70;;;;;;;10.67;71.06;101537.41;1848942;77;21768;-68
2022/02/13 01:37:28;;;;;;;3.62;2.90;;;;;;;10.66;71.05;101538.86;1789702;79;21043;-68
2022/02/13 01:39:58;;;;;;;3.77;3.05;;;;;;;10.63;71.07;101542.13;1773707;80;21076;-69
2022/02/13 01:42:23;;;;;;;3.65;3.25;;;;;;;10.62;71.02;101536.94;1778058;79;21020;-67
2022/02/13 01:44:52;;;;;;;3.67;3.05;;;;;;;10.59;71.10;101534.05;1772142;80;21052;-67
2022/02/13 01:47:20;;;;;;;4.50;3.55;;;;;;;10.58;71.07;101532.34;1766972;80;21101;-68
2022/02/13 01:49:46;;;;;;;5.47;3.70;;;;;;;10.58;71.10;101532.34;1783067;79;21490;-69
2022/02/13 01:52:12;;;;;;;3.90;3.45;;;;;;;10.56;71.08;101537.44;1773682;80;20982;-67
2022/02/13 01:54:39;;;;;;;3.30;2.85;;;;;;;10.54;71.16;101541.55;1769967;80;21063;-69
2022/02/13 01:57:06;;;;;;;3.25;2.95;;;;;;;10.53;71.16;101539.03;1771912;80;21060;-68
2022/02/13 01:59:33;;;;;;;4.83;3.10;;;;;;;10.52;71.13;101534.18;1739134;81;21199;-68
2022/02/13 02:01:59;;;;;;;4.35;3.25;;;;;;;10.65;70.81;101538.03;1715590;79;21037;-67
2022/02/13 02:04:26;;;;;;;3.58;2.95;;;;;;;10.65;70.68;101539.84;1776174;80;21053;-67
2022/02/13 02:06:52;;;;;;;3.75;2.98;;;;;;;10.64;70.65;101545.63;1773703;80;21586;-68
2022/02/13 02:09:19;;;;;;;4.42;3.40;;;;;;;10.61;70.58;101533.94;1784329;79;21060;-67
2022/02/13 02:11:46;;;;;;;3.55;3.00;;;;;;;10.59;70.63;101535.37;1718858;79;21157;-67
2022/02/13 02:14:12;;;;;;;4.00;3.20;;;;;;;10.58;70.64;101536.83;1772288;79;21288;-68
2022/02/13 02:16:40;;;;;;;4.35;3.40;;;;;;;10.55;70.63;101537.93;1784979;79;21068;-68
2022/02/13 02:19:08;;;;;;;4.10;3.40;;;;;;;10.54;70.69;101548.19;1793202;80;21073;-67
2022/02/13 02:21:42;;;;;;;3.47;3.10;;;;;;;10.52;70.65;101545.30;1770087;79;21109;-68
2022/02/13 02:24:16;;;;;;;3.92;3.17;;;;;;;10.51;70.58;101554.26;1766772;80;21134;-68
2022/02/13 02:26:43;;;;;;;4.42;3.05;;;;;;;10.49;70.60;101549.52;1778632;79;21595;-67
2022/02/13 02:29:09;;;;;;;3.87;3.27;;;;;;;10.47;70.55;101537.71;1773863;78;21775;-68
2022/02/13 02:31:36;;;;;;;3.30;2.67;;;;;;;10.44;70.62;101533.96;1793054;79;21061;-67
2022/02/13 02:34:03;;;;;;;3.00;2.70;;;;;;;10.42;70.66;101534.56;1795443;79;21079;-66
2022/02/13 02:36:30;;;;;;;4.42;3.35;;;;;;;10.40;70.66;101539.16;1791645;79;21092;-68
2022/02/13 02:38:56;;;;;;;4.25;3.25;;;;;;;10.39;70.69;101532.14;1804634;79;21096;-67
2022/02/13 02:41:23;;;;;;;3.75;2.92;;;;;;;10.38;70.67;101533.12;1805729;79;21065;-67
2022/02/13 02:43:49;;;;;;;4.12;3.30;;;;;;;10.36;70.68;101531.92;1790670;79;21017;-67
2022/02/13 02:46:15;;;;;;;4.08;3.35;;;;;;;10.35;70.66;101533.36;1798446;78;21078;-67
2022/02/13 02:48:44;;;;;;;3.92;3.20;;;;;;;10.33;70.69;101522.85;1789610;79;21132;-66
2022/02/13 02:51:10;;;;;;;3.62;3.08;;;;;;;10.31;70.72;101523.95;1799817;79;21503;-67
2022/02/13 02:53:36;;;;;;;3.00;2.62;;;;;;;10.30;70.71;101532.41;1807507;79;20986;-67
2022/02/13 02:56:04;;;;;;;3.77;3.15;;;;;;;10.29;70.69;101533.34;1810066;79;21085;-67
2022/02/13 02:58:30;;;;;;;3.33;3.02;;;;;;;10.28;70.68;101532.99;1791049;79;21049;-67
2022/02/13 03:00:57;;;;;;;3.67;2.70;;;;;;;10.27;70.70;101530.45;1781649;79;21098;-68
2022/02/13 03:03:24;;;;;;;3.12;2.83;;;;;;;10.25;70.71;101530.56;1801742;79;21030;-66
2022/02/13 03:05:52;;;;;;;3.20;2.90;;;;;;;10.24;70.68;101535.53;1793181;78;21014;-66
2022/02/13 03:08:18;;;;;;;3.70;3.15;;;;;;;10.24;70.72;101543.50;1793146;79;21537;-67
2022/02/13 03:10:45;;;;;;;3.80;2.77;;;;;;;10.21;70.74;101539.75;1801440;79;21550;-67
2022/02/13 03:13:14;;;;;;;3.62;2.70;;;;;;;10.23;70.71;101540.47;1788116;79;21529;-68
2022/02/13 03:15:40;;;;;;;3.47;2.98;;;;;;;10.35;70.37;101534.69;1777852;79;21632;-68
2022/02/13 03:18:07;;;;;;;4.05;3.10;;;;;;;10.35;70.28;101528.92;1799165;79;21033;-67
2022/02/13 03:20:33;;;;;;;2.90;2.42;;;;;;;10.32;70.29;101528.31;1802395;79;21065;-68
2022/02/13 03:22:59;;;;;;;3.77;3.02;;;;;;;10.29;70.24;101532.01;1747871;81;21488;-69
2022/02/13 03:25:26;;;;;;;3.67;3.22;;;;;;;10.29;70.28;101535.99;1726043;81;21154;-68
2022/02/13 03:27:52;;;;;;;2.98;2.67;;;;;;;10.28;70.27;101531.66;1726376;81;21023;-68
2022/02/13 03:30:19;;;;;;;4.40;3.10;;;;;;;10.27;70.26;101525.14;1811423;77;21115;-67
2022/02/13 03:32:45;;;;;;;3.17;2.65;;;;;;;10.25;70.24;101525.25;1818675;78;21020;-66
2022/02/13 03:35:12;;;;;;;3.85;3.10;;;;;;;10.23;70.27;101530.69;1821256;77;21379;-69
2022/02/13 03:37:42;;;;;;;4.10;2.98;;;;;;;10.21;70.25;101525.98;1818102;78;21099;-68
2022/02/13 03:40:08;;;;;;;3.22;2.67;;;;;;;10.20;70.30;101528.78;1817971;78;21501;-69
2022/02/13 03:42:36;;;;;;;3.05;2.58;;;;;;;10.18;70.27;101524.08;1820451;78;20990;-68
2022/02/13 03:45:02;;;;;;;3.08;2.77;;;;;;;10.18;70.29;101526.73;1818480;78;21080;-68
2022/02/13 03:47:31;;;;;;;3.60;2.75;;;;;;;10.16;70.34;101522.86;1817846;78;21033;-68
2022/02/13 03:49:57;;;;;;;3.17;2.52;;;;;;;10.15;70.33;101509.70;1755476;80;21112;-68
2022/02/13 03:52:24;;;;;;;3.40;2.85;;;;;;;10.13;70.33;101507.65;1779583;79;21014;-68
2022/02/13 03:54:50;;;;;;;3.52;3.02;;;;;;;10.13;70.31;101502.34;1819166;78;21009;-68
2022/02/13 03:57:16;;;;;;;3.10;2.80;;;;;;;10.11;70.33;101504.28;1811532;78;21250;-69
2022/02/13 03:59:43;;;;;;;3.65;3.08;;;;;;;10.09;70.35;101496.42;1819848;78;21588;-68
2022/02/13 04:02:09;;;;;;;3.87;3.00;;;;;;;10.08;70.37;101498.70;1816456;78;21134;-68
2022/02/13 04:04:37;;;;;;;2.95;2.50;;;;;;;10.08;70.36;101499.20;1811478;78;21112;-68
2022/02/13 04:07:04;;;;;;;3.25;2.70;;;;;;;10.07;70.39;101498.84;1819469;78;21044;-68
2022/02/13 04:09:31;;;;;;;3.42;2.90;;;;;;;10.05;70.40;101493.66;1817092;78;21749;-67
2022/02/13 04:11:59;;;;;;;3.37;2.80;;;;;;;10.04;70.38;101492.81;1817240;78;21064;-68
2022/02/13 04:14:25;;;;;;;3.90;3.02;;;;;;;10.02;70.38;101482.80;1799740;78;21132;-69
2022/02/13 04:16:52;;;;;;;4.17;3.00;;;;;;;10.02;70.41;101487.25;1800734;78;21025;-69
2022/02/13 04:19:19;;;;;;;4.15;3.20;;;;;;;10.00;70.38;101486.03;1803195;78;21018;-68
2022/02/13 04:21:45;;;;;;;3.50;2.65;;;;;;;9.99;70.37;101485.69;1809865;78;21060;-68
2022/02/13 04:24:13;;;;;;;3.50;2.90;;;;;;;9.99;70.40;101484.36;1807223;78;21480;-68
2022/02/13 04:26:40;;;;;;;2.83;2.60;;;;;;;9.97;70.43;101477.00;1808322;78;21133;-68
2022/02/13 04:29:07;;;;;;;3.15;2.72;;;;;;;9.97;70.41;101484.13;1768027;79;21589;-67
2022/02/13 04:31:35;;;;;;;3.70;2.80;;;;;;;9.96;70.41;101491.72;1778891;80;21652;-69
2022/02/13 04:34:07;;;;;;;3.30;2.90;;;;;;;9.95;70.41;101484.73;1776074;80;21525;-68
2022/02/13 04:36:31;;;;;;;3.00;2.60;;;;;;;9.94;70.38;101489.18;1819329;77;21066;-67
2022/02/13 04:38:58;;;;;;;3.60;3.10;;;;;;;9.93;70.40;101487.97;1820671;77;21811;-69
2022/02/13 04:41:24;;;;;;;5.12;3.15;;;;;;;9.91;70.42;101484.59;1820580;78;21461;-68
2022/02/13 04:43:50;;;;;;;3.95;2.90;;;;;;;9.90;70.41;101486.41;1819505;78;21064;-69
2022/02/13 04:46:17;;;;;;;3.22;2.72;;;;;;;9.89;70.42;101490.05;1818969;78;21013;-68
2022/02/13 04:48:44;;;;;;;2.62;2.33;;;;;;;9.90;70.40;101485.08;1807887;78;21037;-67
2022/02/13 04:51:10;;;;;;;2.95;2.65;;;;;;;9.88;70.37;101488.34;1771324;80;21105;-68
2022/02/13 04:53:37;;;;;;;3.15;2.70;;;;;;;9.85;70.38;101483.30;1818242;78;21013;-69
2022/02/13 04:56:06;;;;;;;3.60;2.60;;;;;;;9.88;70.37;101483.03;1815812;78;21040;-68
2022/02/13 04:58:33;;;;;;;3.10;2.80;;;;;;;9.87;70.36;101483.15;1811892;77;21041;-68
2022/02/13 05:00:59;;;;;;;2.98;2.67;;;;;;;9.87;70.35;101488.45;1823912;77;21041;-69
2022/02/13 05:03:26;;;;;;;4.47;3.10;;;;;;;9.86;70.32;101486.78;1819396;78;21123;-69
2022/02/13 05:05:54;;;;;;;5.08;3.17;;;;;;;9.84;70.37;101482.92;1817846;78;21068;-68
2022/02/13 05:08:20;;;;;;;3.65;3.27;;;;;;;9.84;70.33;101487.73;1819400;78;21064;-69
2022/02/13 05:10:47;;;;;;;3.27;2.98;;;;;;;9.84;70.27;101488.23;1819716;78;21033;-69
2022/02/13 05:13:14;;;;;;;4.80;3.60;;;;;;;9.81;70.28;101495.09;1811100;78;21057;-68
2022/02/13 05:15:41;;;;;;;3.98;3.22;;;;;;;9.81;70.33;101493.30;1801148;78;21108;-68
2022/02/13 05:18:07;;;;;;;3.98;3.27;;;;;;;9.80;70.25;101496.07;1820288;78;21490;-68
2022/02/13 05:20:34;;;;;;;4.17;2.72;;;;;;;9.80;70.23;101492.92;1803515;78;21462;-69
2022/02/13 05:23:01;;;;;;;3.98;3.27;;;;;;;9.79;70.27;101497.89;1796163;78;21618;-69
2022/02/13 05:25:28;;;;;;;4.92;3.35;;;;;;;9.79;70.24;101494.37;1816995;78;21100;-68
2022/02/13 05:27:54;;;;;;;3.65;3.30;;;;;;;9.78;70.26;101500.66;1818291;78;21795;-70
2022/02/13 05:30:20;;;;;;;3.95;3.40;;;;;;;9.76;70.22;101497.28;1813045;77;21506;-69
2022/02/13 05:32:46;;;;;;;4.15;3.15;;;;;;;9.77;70.28;101496.30;1810881;77;21073;-70
2022/02/13 05:35:13;;;;;;;3.98;3.37;;;;;;;9.76;70.26;101509.23;1820905;77;21025;-69
2022/02/13 05:37:39;;;;;;;4.47;3.22;;;;;;;9.75;70.27;101504.37;1821334;77;21045;-68
2022/02/13 05:40:08;;;;;;;4.75;3.60;;;;;;;9.75;70.28;101503.05;1772649;80;21205;-67
2022/02/13 05:42:35;;;;;;;4.05;3.65;;;;;;;9.75;70.25;101507.52;1740811;81;20988;-68
2022/02/13 05:45:02;;;;;;;4.15;3.70;;;;;;;9.74;70.24;101516.46;1819601;77;21016;-69
2022/02/13 05:47:29;;;;;;;5.92;3.25;;;;;;;9.74;70.25;101511.99;1826230;77;21013;-68
2022/02/13 05:49:55;;;;;;;3.50;3.05;;;;;;;9.75;70.28;101514.16;1828326;77;21560;-69
2022/02/13 05:52:22;;;;;;;3.75;3.30;;;;;;;9.87;70.03;101513.22;1815492;77;21027;-69
2022/02/13 05:54:48;;;;;;;4.47;3.52;;;;;;;9.90;69.91;101515.61;1822873;77;21006;-68
2022/02/13 05:57:14;;;;;;;3.60;3.25;;;;;;;9.89;69.90;101517.92;1766962;80;21085;-67
2022/02/13 05:59:41;;;;;;;4.42;3.40;;;;;;;9.88;69.93;101518.88;1771323;80;21050;-69
2022/02/13 06:02:08;;;;;;;4.33;3.35;;;;;;;9.87;69.91;101513.67;1774940;80;21502;-68
2022/02/13 06:04:35;;;;;;;4.33;3.42;;;;;;;9.87;69.96;101514.55;1776561;80;21118;-68
2022/02/13 06:07:01;;;;;;;4.05;3.62;;;;;;;9.86;69.96;101519.48;1763512;80;21042;-68
2022/02/13 06:09:28;;;;;;;4.92;4.22;;;;;;;9.86;70.03;101512.84;1758487;80;21033;-67
2022/02/13 06:11:55;;;;;;;4.45;3.58;;;;;;;9.86;70.04;101511.52;1766253;79;21057;-69
2022/02/13 06:14:21;;;;;;;4.62;3.67;;;;;;;9.87;70.07;101517.20;1759103;80;21538;-67
2022/02/13 06:16:48;;;;;;;4.28;3.87;;;;;;;9.87;70.13;101508.37;1791660;79;21125;-68
2022/02/13 06:19:14;;;;;;;5.72;4.67;;;;;;;9.87;70.15;101506.58;1775630;80;21051;-67
2022/02/13 06:21:40;;;;;;;4.87;3.87;;;;;;;9.87;70.17;101515.88;1794154;79;21592;-67
2022/02/13 06:24:07;;;;;;;4.42;3.62;;;;;;;9.87;70.22;101514.55;1788035;79;21084;-68
2022/02/13 06:26:35;;;;;;;5.17;4.17;;;;;;;9.87;70.23;101509.23;1789404;79;21053;-66
2022/02/13 06:29:04;;;;;;;5.30;4.12;;;;;;;9.88;70.33;101510.91;1788096;79;21125;-67
2022/02/13 06:31:30;;;;;;;4.72;4.15;;;;;;;9.87;70.33;101502.59;1782817;79;21074;-68
2022/02/13 06:33:56;;;;;;;4.30;3.90;;;;;;;9.88;70.36;101502.95;1780512;79;20993;-69
2022/02/13 06:36:23;;;;;;;4.28;3.67;;;;;;;9.89;70.36;101499.34;1771100;80;21038;-68
2022/02/13 06:38:49;;;;;;;4.62;3.98;;;;;;;9.89;70.40;101505.98;1750958;79;21043;-67
2022/02/13 06:41:15;;;;;;;6.08;4.80;;;;;;;9.90;70.46;101496.19;1798813;79;21061;-68
2022/02/13 06:43:41;;;;;;;5.75;4.40;;;;;;;9.91;70.46;101501.84;1787255;79;21051;-68
2022/02/13 06:46:08;;;;;;;5.15;4.25;;;;;;;9.90;70.50;101497.03;1792154;79;21081;-68
2022/02/13 06:48:35;;;;;;;5.42;4.90;;;;;;;9.92;70.58;101503.06;1775562;79;21043;-68
2022/02/13 06:51:01;;;;;;;5.37;4.12;;;;;;;9.94;70.59;101505.11;1800340;79;21046;-68
2022/02/13 06:53:28;;;;;;;5.20;4.70;;;;;;;10.10;70.30;101499.91;1757800;80;21138;-67
2022/02/13 06:55:55;;;;;;;6.22;4.35;;;;;;;10.13;70.25;101498.36;1836589;77;21694;-67
2022/02/13 06:58:22;;;;;;;5.33;4.17;;;;;;;10.12;70.30;101502.83;1793750;79;21464;-68
2022/02/13 07:00:48;;;;;;;6.45;4.42;;;;;;;10.12;70.40;101498.84;1794332;79;20998;-66
2022/02/13 07:03:14;;;;;;;4.85;4.03;;;;;;;10.13;70.45;101493.05;1797445;78;21054;-68
2022/02/13 07:05:41;;;;;;;4.75;4.25;;;;;;;10.13;70.54;101499.69;1769466;80;21086;-67
2022/02/13 07:08:07;;;;;;;5.30;4.35;;;;;;;10.14;70.54;101501.36;1775622;79;21077;-58
2022/02/13 07:10:34;;;;;;;4.45;3.05;;;;;;;10.17;76.28;101440.87;1826007;77;21033;-62
2022/02/13 07:13:01;;;;;;;4.08;3.05;;;;;;;10.49;79.70;101493.72;1797607;79;21110;-61
2022/02/13 07:15:30;;;;;;;4.62;3.30;;;;;;;10.84;77.40;101492.67;1767206;80;21015;-63
2022/02/13 07:17:57;;;;;;;4.83;3.37;;;;;;;10.92;76.30;101500.35;1817586;77;21130;-62
2022/02/13 07:20:24;;;;;;;4.53;3.55;;;;;;;10.95;75.68;101493.92;1817425;77;21006;-62
2022/02/13 07:22:51;;;;;;;4.10;3.50;;;;;;;10.93;75.21;101496.73;1830250;77;21121;-63
2022/02/13 07:25:17;;;;;;;7.00;3.50;;;;;;;10.92;74.75;101490.21;1844723;77;21062;-61
2022/02/13 07:27:44;;;;;;;4.10;3.42;;;;;;;10.90;74.37;101494.32;1797173;79;21030;-62
2022/02/13 07:30:13;;;;;;;5.50;3.70;;;;;;;10.87;74.00;101485.25;1763959;80;21058;-62
2022/02/13 07:32:45;;;;;;;4.80;4.20;;;;;;;10.85;73.65;101481.88;1851277;77;21033;-62
2022/02/13 07:35:11;;;;;;;5.85;3.85;;;;;;;10.82;73.29;101476.84;1823440;77;21571;-63
2022/02/13 07:37:38;;;;;;;4.20;3.58;;;;;;;10.81;72.95;101484.44;1812174;77;20977;-63
2022/02/13 07:40:05;;;;;;;6.12;3.77;;;;;;;10.78;72.59;101476.25;1836042;77;21037;-63
2022/02/13 07:42:32;;;;;;;5.37;3.58;;;;;;;10.77;72.24;101476.37;1847352;77;21174;-62
2022/02/13 07:44:59;;;;;;;3.77;3.37;;;;;;;10.76;71.97;101470.22;1844235;77;21005;-62
2022/02/13 07:47:27;;;;;;;4.20;3.50;;;;;;;10.75;71.66;101478.31;1815427;77;20994;-61
2022/02/13 07:49:54;;;;;;;4.22;3.30;;;;;;;10.81;71.25;101471.15;1814364;79;21045;-63
2022/02/13 07:52:20;;;;;;;5.30;3.85;;;;;;;10.91;70.70;101475.21;1828049;77;21064;-62
2022/02/13 07:54:47;;;;;;;5.35;3.98;;;;;;;10.89;70.45;101482.48;1840873;77;21186;-64
2022/02/13 07:57:14;;;;;;;4.20;3.45;;;;;;;10.79;70.25;101457.98;1824116;77;21009;-63
2022/02/13 07:59:44;;;;;;;3.22;2.92;;;;;;;10.88;70.05;101479.48;1837322;77;21060;-64
2022/02/13 08:02:10;;;;;;;5.25;3.92;;;;;;;10.89;69.85;101474.50;1832942;77;21057;-62
2022/02/13 08:04:41;;;;;;;4.70;3.50;;;;;;;10.89;69.67;101476.66;1810944;78;21035;-62
2022/02/13 08:07:05;;;;;;;4.35;3.40;;;;;;;10.90;69.51;101469.55;1834920;77;21147;-62
2022/02/13 08:09:33;;;;;;;3.60;3.10;;;;;;;10.90;69.36;101472.22;1825528;77;21027;-61
2022/02/13 08:11:59;;;;;;;4.28;3.47;;;;;;;10.90;69.25;101464.23;1822553;77;21019;-63
2022/02/13 08:14:25;;;;;;;5.47;3.77;;;;;;;10.91;69.11;101457.44;1836185;77;21038;-61
2022/02/13 08:16:51;;;;;;;4.22;3.47;;;;;;;10.91;69.00;101456.11;1773077;80;21053;-61
2022/02/13 08:19:18;;;;;;;4.45;3.35;;;;;;;10.93;68.88;101459.51;1771519;80;21115;-60
2022/02/13 08:21:45;;;;;;;3.80;2.95;;;;;;;10.95;68.78;101456.23;1797789;79;21038;-62
2022/02/13 08:24:12;;;;;;;4.10;3.35;;;;;;;10.97;68.68;101452.95;1757402;79;21076;-64
2022/02/13 08:26:40;;;;;;;3.98;3.15;;;;;;;11.01;68.60;101445.58;1782869;80;21018;-62
2022/02/13 08:29:06;;;;;;;3.70;3.00;;;;;;;11.03;68.48;101448.94;1784973;79;21051;-61
2022/02/13 08:31:33;;;;;;;4.08;3.67;;;;;;;11.06;68.39;101453.98;1775157;79;21106;-61
2022/02/13 08:33:59;;;;;;;4.10;3.25;;;;;;;11.08;68.31;101458.69;1780478;79;21030;-61
2022/02/13 08:36:26;;;;;;;4.28;3.37;;;;;;;11.11;68.24;101457.11;1773544;79;21077;-60
2022/02/13 08:38:52;;;;;;;4.70;3.60;;;;;;;11.14;68.13;101456.83;1772524;79;21540;-62
2022/02/13 08:41:18;;;;;;;4.15;3.37;;;;;;;11.17;68.04;101461.07;1786628;79;21009;-63
2022/02/13 08:43:45;;;;;;;3.77;3.02;;;;;;;11.20;67.96;101445.70;1791733;79;21130;-61
2022/02/13 08:46:11;;;;;;;5.12;3.58;;;;;;;11.26;67.86;101451.45;1777081;79;21057;-62
2022/02/13 08:48:38;;;;;;;4.05;3.20;;;;;;;11.30;67.78;101451.54;1775374;79;21110;-62
2022/02/13 08:51:06;;;;;;;4.67;3.20;;;;;;;11.34;67.66;101439.19;1773136;79;21048;-65
2022/02/13 08:53:33;;;;;;;3.83;3.42;;;;;;;11.38;67.56;101449.92;1780602;79;21025;-64
2022/02/13 08:55:59;;;;;;;3.30;2.95;;;;;;;11.45;68.16;101456.05;1781284;79;21787;-64
2022/02/13 08:58:26;;;;;;;4.45;3.10;;;;;;;11.61;71.26;101443.11;1781200;79;21139;-63
2022/02/13 09:00:52;;;;;;;4.22;2.77;;;;;;;11.82;70.56;101444.39;1784301;79;21061;-64
2022/02/13 09:03:18;;;;;;;4.03;3.22;;;;;;;11.91;70.55;101444.09;1786874;79;20982;-66
2022/02/13 09:05:45;;;;;;;4.90;3.45;;;;;;;11.97;70.10;101440.37;1775337;79;21096;-64
2022/02/13 09:08:12;;;;;;;4.08;3.08;;;;;;;12.06;69.66;101439.23;1784861;79;21912;-63
2022/02/13 09:10:39;;;;;;;3.42;2.83;;;;;;;12.13;69.41;101442.55;1776951;79;21064;-66
2022/02/13 09:13:08;;;;;;;3.20;2.52;;;;;;;12.20;69.26;101442.83;1765083;79;21064;-65
2022/02/13 09:15:34;;;;;;;3.70;3.30;;;;;;;12.27;69.27;101447.14;1783326;79;21462;-64
2022/02/13 09:18:00;;;;;;;3.92;2.95;;;;;;;12.33;69.36;101450.08;1776877;79;21042;-67
2022/02/13 09:20:27;;;;;;;4.22;3.17;;;;;;;12.41;69.44;101447.23;1771772;80;21085;-66
2022/02/13 09:22:53;;;;;;;6.35;3.22;;;;;;;12.46;68.99;101444.97;1844762;77;21021;-66
2022/02/13 09:25:20;;;;;;;4.65;3.47;;;;;;;12.53;68.73;101438.94;1828496;77;21065;-66
2022/02/13 09:27:46;;;;;;;3.25;2.77;;;;;;;12.61;68.67;101422.25;1827856;77;20981;-64
2022/02/13 09:30:13;;;;;;;4.75;3.00;;;;;;;12.68;68.62;101434.05;1843306;77;21064;-66
2022/02/13 09:32:40;;;;;;;6.08;3.55;;;;;;;12.77;68.66;101432.38;1820401;78;21126;-68
2022/02/13 09:35:08;;;;;;;3.87;3.08;;;;;;;12.84;68.62;101426.80;1823302;78;20986;-63
2022/02/13 09:37:35;;;;;;;5.83;3.12;;;;;;;12.93;68.41;101418.45;1826985;78;21041;-64
2022/02/13 09:40:01;;;;;;;3.40;2.85;;;;;;;13.01;68.10;101421.23;1807717;78;21523;-64
2022/02/13 09:42:28;;;;;;;3.90;3.00;;;;;;;13.09;67.74;101417.86;1812448;78;21496;-66
2022/02/13 09:44:54;;;;;;;3.85;3.22;;;;;;;13.18;67.81;101413.83;1829988;78;21185;-67
2022/02/13 09:47:21;;;;;;;3.95;3.30;;;;;;;13.27;68.01;101423.28;1836638;78;20990;-67
2022/02/13 09:49:47;;;;;;;4.37;3.30;;;;;;;13.35;68.08;101411.45;1818262;78;21039;-68
2022/02/13 09:52:14;;;;;;;4.83;3.50;;;;;;;13.45;68.25;101404.73;1815081;78;20993;-67
2022/02/13 09:54:40;;;;;;;4.25;3.25;;;;;;;13.55;68.51;101402.36;1781643;78;21055;-62
2022/02/13 10:00:01;;;;;;;4.10;3.30;;;;;;;13.92;68.82;101387.28;1820550;78;20978;-63
2022/02/13 10:02:43;;;;;;;3.27;2.98;;;;;;;14.02;69.14;101389.38;1817988;78;21521;-62
2022/02/13 10:05:13;;;;;;;3.83;3.08;;;;;;;14.09;69.45;101381.63;1729895;81;21061;-65
2022/02/13 10:07:40;;;;;;;3.85;3.25;;;;;;;14.18;69.69;101374.05;1821915;78;21006;-65
2022/02/13 10:10:10;;;;;;;3.70;3.27;;;;;;;14.28;69.91;101371.30;1814918;78;23129;-65
2022/02/13 10:12:43;;;;;;;4.72;3.62;;;;;;;14.35;70.01;101369.19;1829043;78;20991;-60
2022/02/13 10:15:24;;;;;;;5.33;3.20;;;;;;;14.44;70.29;101277.02;1822307;78;21076;-65
2022/02/13 10:18:08;;;;;;;7.47;3.75;;;;;;;14.71;77.28;101362.99;1765167;79;21049;-66
2022/02/13 10:20:38;;;;;;;8.15;4.35;;;;;;;15.07;75.82;101361.58;1817733;77;22102;-66
2022/02/13 10:23:13;;;;;;;9.03;3.98;;;;;;;15.22;74.94;101367.16;1724264;81;21848;-68
2022/02/13 10:25:40;;;;;;;6.25;4.10;;;;;;;15.28;74.00;101371.41;1829562;78;21513;-65
2022/02/13 10:28:14;;;;;;;6.03;3.52;;;;;;;15.36;73.29;101255.46;1823247;78;21691;-62
2022/02/13 10:30:46;;;;;;;6.20;3.58;;;;;;;15.44;73.04;101239.41;1823220;78;21021;-60
2022/02/13 10:33:21;;;;;;;4.42;3.47;;;;;;;15.57;72.71;101244.79;1828893;78;21071;-62
2022/02/13 10:36:06;;;;;;;4.90;3.72;;;;;;;15.71;71.93;101232.94;1825713;78;21116;-61
2022/02/13 10:38:36;;;;;;;4.65;3.25;;;;;;;15.86;71.24;101235.02;1729623;81;21046;-62
2022/02/13 10:41:24;;;;;;;4.53;3.30;;;;;;;16.01;70.24;101236.02;1830721;78;21002;-63
2022/02/13 10:44:03;;;;;;;5.90;4.17;;;;;;;16.16;69.22;101235.34;1824605;78;21006;-62
2022/02/13 10:46:32;;;;;;;4.78;3.25;;;;;;;16.30;68.39;101278.89;1728425;81;21101;-62
2022/02/13 10:48:58;;;;;;;5.25;3.65;;;;;;;16.41;68.45;101264.31;1832661;78;21206;-61
2022/02/13 10:51:25;;;;;;;7.15;3.20;;;;;;;16.47;68.25;101265.80;1836317;78;21050;-61
2022/02/13 10:53:54;;;;;;;5.53;3.45;;;;;;;16.56;68.22;101327.01;1728219;81;21160;-62
2022/02/13 10:56:20;;;;;;;6.30;3.62;;;;;;;16.66;68.86;101314.24;1829355;78;21474;-62
2022/02/13 10:58:47;;;;;;;5.37;3.85;;;;;;;16.83;69.46;101351.33;1732245;80;21057;-61
2022/02/13 11:01:16;;;;;;;4.72;3.30;;;;;;;17.04;69.66;101325.28;1829817;78;21914;-60
2022/02/13 11:03:48;;;;;;;5.15;3.08;;;;;;;17.12;69.85;101312.34;1829525;78;21049;-61
2022/02/13 11:06:13;;;;;;;11.53;3.65;;;;;;;17.21;69.64;101268.82;1810306;78;21049;-61
2022/02/13 11:08:51;;;;;;;5.37;3.33;;;;;;;17.30;69.29;101310.23;1758016;81;21008;-62
2022/02/13 11:11:18;;;;;;;5.17;3.67;;;;;;;17.41;68.79;101309.55;1827563;78;21466;-61
2022/02/13 11:13:45;;;;;;;8.70;3.62;;;;;;;17.52;68.21;101293.04;1812291;78;21127;-61
2022/02/13 11:16:35;;;;;;;6.42;3.47;;;;;;;17.63;67.67;101290.45;1752520;81;21528;-63
2022/02/13 11:19:11;;;;;;;7.37;3.72;;;;;;;17.74;67.13;101287.36;1820250;78;21026;-61
2022/02/13 11:21:41;;;;;;;5.05;3.62;;;;;;;17.86;66.47;101295.37;1836189;77;21483;-60
2022/02/13 11:24:07;;;;;;;7.65;3.27;;;;;;;17.98;65.89;101295.81;1806006;78;21071;-60
2022/02/13 11:26:37;;;;;;;7.22;3.98;;;;;;;18.11;65.34;101268.83;1802362;78;21100;-61
2022/02/13 11:29:06;;;;;;;6.03;3.50;;;;;;;18.22;64.83;101263.84;1817525;78;21506;-63
2022/02/13 11:31:42;;;;;;;8.13;3.85;;;;;;;18.34;64.21;101267.45;1825307;78;21081;-61